createdAt,value
2017-06-20T00:00:32.842Z,1013.38
2017-06-20T00:01:32.883Z,1013.4
2017-06-20T00:02:32.954Z,1013.36
2017-06-20T00:03:32.988Z,1013.31
2017-06-20T00:04:32.997Z,1013.3
2017-06-20T00:05:33.063Z,1013.29
2017-06-20T00:06:33.102Z,1013.29
2017-06-20T00:07:33.128Z,1013.27
2017-06-20T00:08:33.171Z,1013.29
2017-06-20T00:09:33.181Z,1013.26
2017-06-20T00:10:33.222Z,1013.28
2017-06-20T00:11:33.262Z,1013.27
2017-06-20T00:12:33.293Z,1013.27
2017-06-20T00:13:33.358Z,1013.24
2017-06-20T00:14:33.370Z,1013.24
2017-06-20T00:15:33.430Z,1013.24
2017-06-20T00:16:33.471Z,1013.27
2017-06-20T00:17:33.472Z,1013.18
2017-06-20T00:18:33.540Z,1013.23
2017-06-20T00:19:33.579Z,1013.2
2017-06-20T00:20:33.583Z,1013.2
2017-06-20T00:21:33.631Z,1013.17
2017-06-20T00:22:33.690Z,1013.18
2017-06-20T00:23:33.727Z,1013.14
2017-06-20T00:24:33.737Z,1013.17
2017-06-20T00:25:33.797Z,1013.17
2017-06-20T00:26:33.837Z,1013.19
2017-06-20T00:27:33.845Z,1013.12
2017-06-20T00:28:33.912Z,1013.17
2017-06-20T00:29:33.946Z,1013.15
2017-06-20T00:30:33.960Z,1013.14
2017-06-20T00:31:33.993Z,1013.15
2017-06-20T00:32:34.034Z,1013.15
2017-06-20T00:33:34.094Z,1013.16
2017-06-20T00:34:34.099Z,1013.12
2017-06-20T00:35:34.141Z,1013.16
2017-06-20T00:36:34.209Z,1013.14
2017-06-20T00:37:34.217Z,1013.14
2017-06-20T00:38:34.251Z,1013.17
2017-06-20T00:39:34.300Z,1013.16
2017-06-20T00:40:34.350Z,1013.16
2017-06-20T00:41:34.359Z,1013.12
2017-06-20T00:42:34.393Z,1013.1
2017-06-20T00:43:34.461Z,1013.08
2017-06-20T00:44:34.471Z,1013.04
2017-06-20T00:45:34.506Z,1013.02
2017-06-20T00:46:34.577Z,1013.03
2017-06-20T00:47:34.607Z,1013.04
2017-06-20T00:48:34.618Z,1013.02
2017-06-20T00:49:34.650Z,1013.01
2017-06-20T00:50:34.713Z,1012.98
2017-06-20T00:51:34.727Z,1012.98
2017-06-20T00:52:34.796Z,1012.94
2017-06-20T00:53:34.797Z,1012.96
2017-06-20T00:54:34.862Z,1012.97
2017-06-20T00:55:34.900Z,1013.01
2017-06-20T00:56:34.909Z,1012.98
2017-06-20T00:57:34.973Z,1013
2017-06-20T00:58:35.009Z,1013.06
2017-06-20T00:59:35.022Z,1012.97
2017-06-20T01:00:35.083Z,1013.01
2017-06-20T01:01:35.094Z,1013.02
2017-06-20T01:02:35.134Z,1012.99
2017-06-20T01:03:35.190Z,1012.96
2017-06-20T01:04:35.198Z,1012.98
2017-06-20T01:05:35.276Z,1012.9
2017-06-20T01:06:35.277Z,1012.95
2017-06-20T01:07:35.339Z,1012.93
2017-06-20T01:08:35.373Z,1012.91
2017-06-20T01:09:35.386Z,1012.92
2017-06-20T01:10:35.422Z,1012.92
2017-06-20T01:11:35.463Z,1012.91
2017-06-20T01:12:35.495Z,1012.89
2017-06-20T01:13:35.531Z,1012.91
2017-06-20T01:14:35.599Z,1012.92
2017-06-20T01:15:35.599Z,1012.96
2017-06-20T01:16:35.642Z,1012.9
2017-06-20T01:17:35.704Z,1012.89
2017-06-20T01:18:35.714Z,1012.87
2017-06-20T01:19:35.750Z,1012.87
2017-06-20T01:20:35.811Z,1012.85
2017-06-20T01:21:35.829Z,1012.79
2017-06-20T01:22:35.858Z,1012.83
2017-06-20T01:23:35.895Z,1012.85
2017-06-20T01:24:35.932Z,1012.82
2017-06-20T01:25:35.966Z,1012.82
2017-06-20T01:26:35.998Z,1012.84
2017-06-20T01:27:36.040Z,1012.8
2017-06-20T01:28:36.101Z,1012.82
2017-06-20T01:29:36.109Z,1012.77
2017-06-20T01:30:36.150Z,1012.8
2017-06-20T01:31:36.213Z,1012.78
2017-06-20T01:32:36.223Z,1012.73
2017-06-20T01:33:36.256Z,1012.78
2017-06-20T01:34:36.294Z,1012.77
2017-06-20T01:35:36.331Z,1012.73
2017-06-20T01:36:36.375Z,1012.73
2017-06-20T01:37:36.399Z,1012.73
2017-06-20T01:38:36.440Z,1012.77
2017-06-20T01:39:36.484Z,1012.73
2017-06-20T01:40:36.512Z,1012.73
2017-06-20T01:41:36.576Z,1012.71
2017-06-20T01:42:36.610Z,1012.66
2017-06-20T01:43:36.622Z,1012.7
2017-06-20T01:44:36.659Z,1012.7
2017-06-20T01:45:36.720Z,1012.66
2017-06-20T01:46:36.728Z,1012.63
2017-06-20T01:47:36.763Z,1012.67
2017-06-20T01:48:36.824Z,1012.66
2017-06-20T01:49:36.832Z,1012.67
2017-06-20T01:50:36.875Z,1012.65
2017-06-20T01:51:36.904Z,1012.63
2017-06-20T01:52:36.951Z,1012.66
2017-06-20T01:53:37.006Z,1012.63
2017-06-20T01:54:37.019Z,1012.62
2017-06-20T01:55:37.081Z,1012.63
2017-06-20T01:56:37.088Z,1012.57
2017-06-20T01:57:37.151Z,1012.53
2017-06-20T01:58:37.188Z,1012.56
2017-06-20T01:59:37.222Z,1012.52
2017-06-20T02:00:37.263Z,1012.51
2017-06-20T02:01:37.298Z,1012.53
2017-06-20T02:02:37.305Z,1012.54
2017-06-20T02:03:37.348Z,1012.49
2017-06-20T02:04:37.407Z,1012.49
2017-06-20T02:05:37.430Z,1012.46
2017-06-20T02:06:37.451Z,1012.48
2017-06-20T02:07:37.515Z,1012.49
2017-06-20T02:08:37.547Z,1012.44
2017-06-20T02:09:37.558Z,1012.42
2017-06-20T02:10:37.597Z,1012.43
2017-06-20T02:11:37.635Z,1012.41
2017-06-20T02:12:37.668Z,1012.41
2017-06-20T02:13:37.699Z,1012.43
2017-06-20T02:14:37.764Z,1012.44
2017-06-20T02:15:37.803Z,1012.41
2017-06-20T02:16:37.806Z,1012.42
2017-06-20T02:17:37.850Z,1012.41
2017-06-20T02:18:37.916Z,1012.42
2017-06-20T02:19:37.944Z,1012.42
2017-06-20T02:20:37.951Z,1012.46
2017-06-20T02:21:38.018Z,1012.46
2017-06-20T02:22:38.034Z,1012.46
2017-06-20T02:23:38.066Z,1012.46
2017-06-20T02:24:38.128Z,1012.4
2017-06-20T02:25:38.141Z,1012.38
2017-06-20T02:26:38.195Z,1012.39
2017-06-20T02:27:38.208Z,1012.41
2017-06-20T02:28:38.246Z,1012.4
2017-06-20T02:29:38.307Z,1012.4
2017-06-20T02:30:38.313Z,1012.37
2017-06-20T02:31:38.356Z,1012.34
2017-06-20T02:32:38.415Z,1012.36
2017-06-20T02:33:38.417Z,1012.38
2017-06-20T02:34:38.456Z,1012.33
2017-06-20T02:35:38.520Z,1012.35
2017-06-20T02:36:38.558Z,1012.32
2017-06-20T02:37:38.567Z,1012.34
2017-06-20T02:38:38.634Z,1012.34
2017-06-20T02:39:38.633Z,1012.31
2017-06-20T02:40:38.704Z,1012.34
2017-06-20T02:41:38.705Z,1012.35
2017-06-20T02:42:38.777Z,1012.38
2017-06-20T02:43:38.813Z,1012.34
2017-06-20T02:44:38.835Z,1012.31
2017-06-20T02:45:38.859Z,1012.38
2017-06-20T02:46:38.917Z,1012.39
2017-06-20T02:47:38.957Z,1012.38
2017-06-20T02:48:38.957Z,1012.37
2017-06-20T02:49:39.027Z,1012.38
2017-06-20T02:50:39.042Z,1012.34
2017-06-20T02:51:39.080Z,1012.41
2017-06-20T02:52:39.132Z,1012.3
2017-06-20T02:53:39.135Z,1012.34
2017-06-20T02:54:39.207Z,1012.34
2017-06-20T02:55:39.213Z,1012.32
2017-06-20T02:56:39.275Z,1012.33
2017-06-20T02:57:39.281Z,1012.35
2017-06-20T02:58:39.322Z,1012.33
2017-06-20T02:59:39.383Z,1012.36
2017-06-20T03:00:39.394Z,1012.32
2017-06-20T03:01:39.457Z,1012.36
2017-06-20T03:02:39.455Z,1012.4
2017-06-20T03:03:39.522Z,1012.34
2017-06-20T03:04:39.536Z,1012.35
2017-06-20T03:05:39.587Z,1012.32
2017-06-20T03:06:39.615Z,1012.33
2017-06-20T03:07:39.638Z,1012.36
2017-06-20T03:08:39.709Z,1012.38
2017-06-20T03:09:39.719Z,1012.34
2017-06-20T03:10:39.756Z,1012.33
2017-06-20T03:11:39.789Z,1012.35
2017-06-20T03:12:39.848Z,1012.37
2017-06-20T03:13:39.856Z,1012.38
2017-06-20T03:14:39.896Z,1012.39
2017-06-20T03:15:39.960Z,1012.36
2017-06-20T03:16:39.962Z,1012.42
2017-06-20T03:17:40.027Z,1012.41
2017-06-20T03:18:40.040Z,1012.45
2017-06-20T03:19:40.099Z,1012.46
2017-06-20T03:20:40.105Z,1012.42
2017-06-20T03:21:40.144Z,1012.44
2017-06-20T03:22:40.208Z,1012.45
2017-06-20T03:23:40.244Z,1012.42
2017-06-20T03:24:40.251Z,1012.42
2017-06-20T03:25:40.290Z,1012.43
2017-06-20T03:26:40.353Z,1012.41
2017-06-20T03:27:40.354Z,1012.44
2017-06-20T03:28:40.421Z,1012.38
2017-06-20T03:29:40.459Z,1012.43
2017-06-20T03:30:40.466Z,1012.39
2017-06-20T03:31:40.502Z,1012.45
2017-06-20T03:32:40.541Z,1012.41
2017-06-20T03:33:40.602Z,1012.4
2017-06-20T03:34:40.608Z,1012.45
2017-06-20T03:35:40.643Z,1012.41
2017-06-20T03:36:40.709Z,1012.44
2017-06-20T03:37:40.712Z,1012.42
2017-06-20T03:38:40.746Z,1012.41
2017-06-20T03:39:40.812Z,1012.42
2017-06-20T03:40:40.855Z,1012.4
2017-06-20T03:41:40.858Z,1012.36
2017-06-20T03:42:40.894Z,1012.37
2017-06-20T03:43:40.960Z,1012.37
2017-06-20T03:44:40.970Z,1012.33
2017-06-20T03:45:41.002Z,1012.32
2017-06-20T03:46:41.061Z,1012.34
2017-06-20T03:47:41.102Z,1012.31
2017-06-20T03:48:41.108Z,1012.31
2017-06-20T03:49:41.145Z,1012.3
2017-06-20T03:50:41.187Z,1012.31
2017-06-20T03:51:41.247Z,1012.34
2017-06-20T03:52:41.249Z,1012.33
2017-06-20T03:53:41.319Z,1012.33
2017-06-20T03:54:41.357Z,1012.28
2017-06-20T03:55:41.390Z,1012.33
2017-06-20T03:56:41.401Z,1012.3
2017-06-20T03:57:41.440Z,1012.32
2017-06-20T03:58:41.496Z,1012.33
2017-06-20T03:59:41.513Z,1012.35
2017-06-20T04:00:41.551Z,1012.35
2017-06-20T04:01:41.586Z,1012.36
2017-06-20T04:02:41.621Z,1012.39
2017-06-20T04:03:41.657Z,1012.39
2017-06-20T04:04:41.699Z,1012.38
2017-06-20T04:05:41.729Z,1012.32
2017-06-20T04:06:41.752Z,1012.32
2017-06-20T04:07:41.802Z,1012.38
2017-06-20T04:08:41.827Z,1012.38
2017-06-20T04:09:41.876Z,1012.44
2017-06-20T04:10:41.911Z,1012.41
2017-06-20T04:11:41.949Z,1012.43
2017-06-20T04:12:41.982Z,1012.5
2017-06-20T04:13:42.019Z,1012.56
2017-06-20T04:14:42.051Z,1012.74
2017-06-20T04:15:42.097Z,1012.9
2017-06-20T04:16:42.128Z,1012.98
2017-06-20T04:17:42.151Z,1013
2017-06-20T04:18:42.207Z,1012.9
2017-06-20T04:19:42.240Z,1012.84
2017-06-20T04:20:42.277Z,1012.83
2017-06-20T04:21:42.313Z,1012.71
2017-06-20T04:22:42.351Z,1012.63
2017-06-20T04:23:42.389Z,1012.82
2017-06-20T04:24:42.409Z,1013.06
2017-06-20T04:25:42.461Z,1013.26
2017-06-20T04:26:42.505Z,1013.32
2017-06-20T04:27:42.542Z,1013.37
2017-06-20T04:28:42.580Z,1013.43
2017-06-20T04:29:42.620Z,1013.36
2017-06-20T04:30:42.656Z,1013.34
2017-06-20T04:31:42.695Z,1013.36
2017-06-20T04:32:42.732Z,1013.17
2017-06-20T04:33:42.752Z,1012.84
2017-06-20T04:34:42.812Z,1012.49
2017-06-20T04:35:42.849Z,1012.49
2017-06-20T04:36:42.891Z,1012.49
2017-06-20T04:37:42.929Z,1012.51
2017-06-20T04:38:42.954Z,1012.7
2017-06-20T04:39:43.009Z,1012.63
2017-06-20T04:40:43.049Z,1012.59
2017-06-20T04:41:43.088Z,1012.65
2017-06-20T04:42:43.127Z,1012.65
2017-06-20T04:43:43.172Z,1012.72
2017-06-20T04:44:43.208Z,1012.78
2017-06-20T04:45:43.244Z,1012.99
2017-06-20T04:46:43.284Z,1013.31
2017-06-20T04:47:43.328Z,1013.05
2017-06-20T04:48:43.363Z,1012.91
2017-06-20T04:49:43.404Z,1012.8
2017-06-20T04:50:43.448Z,1013.01
2017-06-20T04:51:43.485Z,1013.02
2017-06-20T04:52:43.526Z,1012.71
2017-06-20T04:53:43.562Z,1012.6
2017-06-20T04:54:43.593Z,1012.55
2017-06-20T04:55:43.627Z,1012.53
2017-06-20T04:56:43.686Z,1012.52
2017-06-20T04:57:43.722Z,1012.53
2017-06-20T04:58:43.759Z,1012.56
2017-06-20T04:59:43.803Z,1012.55
2017-06-20T05:00:43.845Z,1012.57
2017-06-20T05:01:43.882Z,1012.63
2017-06-20T05:02:43.923Z,1012.64
2017-06-20T05:03:43.957Z,1012.66
2017-06-20T05:04:44.000Z,1012.71
2017-06-20T05:05:44.048Z,1012.66
2017-06-20T05:06:44.078Z,1012.62
2017-06-20T05:07:44.121Z,1012.61
2017-06-20T05:08:44.150Z,1012.67
2017-06-20T05:09:44.195Z,1012.67
2017-06-20T05:10:44.241Z,1012.62
2017-06-20T05:11:44.276Z,1012.54
2017-06-20T05:12:44.313Z,1012.61
2017-06-20T05:13:44.358Z,1012.64
2017-06-20T05:14:44.387Z,1012.62
2017-06-20T05:15:44.437Z,1012.66
2017-06-20T05:16:44.477Z,1012.7
2017-06-20T05:17:44.516Z,1012.69
2017-06-20T05:18:44.557Z,1012.66
2017-06-20T05:19:44.599Z,1012.6
2017-06-20T05:20:44.638Z,1012.56
2017-06-20T05:21:44.677Z,1012.58
2017-06-20T05:22:44.716Z,1012.55
2017-06-20T05:23:44.762Z,1012.53
2017-06-20T05:24:44.801Z,1012.54
2017-06-20T05:25:44.842Z,1012.57
2017-06-20T05:26:44.867Z,1012.6
2017-06-20T05:27:44.924Z,1012.58
2017-06-20T05:28:44.965Z,1012.54
2017-06-20T05:29:44.984Z,1012.49
2017-06-20T05:30:45.046Z,1012.54
2017-06-20T05:31:45.082Z,1012.49
2017-06-20T05:32:45.125Z,1012.51
2017-06-20T05:33:45.172Z,1012.51
2017-06-20T05:34:45.208Z,1012.53
2017-06-20T05:35:45.250Z,1012.56
2017-06-20T05:36:45.269Z,1012.55
2017-06-20T05:37:45.327Z,1012.54
2017-06-20T05:38:45.371Z,1012.59
2017-06-20T05:39:45.411Z,1012.57
2017-06-20T05:40:45.447Z,1012.55
2017-06-20T05:41:45.487Z,1012.58
2017-06-20T05:42:45.530Z,1012.58
2017-06-20T05:43:45.570Z,1012.56
2017-06-20T05:44:45.611Z,1012.57
2017-06-20T05:45:45.653Z,1012.6
2017-06-20T05:46:45.681Z,1012.59
2017-06-20T05:47:45.733Z,1012.6
2017-06-20T05:48:45.774Z,1012.62
2017-06-20T05:49:45.811Z,1012.62
2017-06-20T05:50:45.854Z,1012.61
2017-06-20T05:51:45.879Z,1012.6
2017-06-20T05:52:45.933Z,1012.58
2017-06-20T05:53:45.978Z,1012.61
2017-06-20T05:54:46.015Z,1012.65
2017-06-20T05:55:46.055Z,1012.64
2017-06-20T05:56:46.096Z,1012.65
2017-06-20T05:57:46.137Z,1012.7
2017-06-20T05:58:46.180Z,1012.72
2017-06-20T05:59:46.224Z,1012.7
2017-06-20T06:00:46.262Z,1012.68
2017-06-20T06:01:46.295Z,1012.73
2017-06-20T06:02:46.343Z,1012.71
2017-06-20T06:03:46.382Z,1012.7
2017-06-20T06:04:46.421Z,1012.73
2017-06-20T06:05:46.461Z,1012.81
2017-06-20T06:06:46.496Z,1012.86
2017-06-20T06:07:46.548Z,1012.86
2017-06-20T06:08:46.583Z,1012.93
2017-06-20T06:09:46.618Z,1012.85
2017-06-20T06:10:46.663Z,1012.84
2017-06-20T06:11:46.689Z,1012.9
2017-06-20T06:12:46.746Z,1012.9
2017-06-20T06:13:46.787Z,1012.92
2017-06-20T06:14:46.828Z,1012.94
2017-06-20T06:15:46.871Z,1012.91
2017-06-20T06:16:46.910Z,1012.86
2017-06-20T06:17:46.950Z,1012.83
2017-06-20T06:18:46.993Z,1012.86
2017-06-20T06:19:47.018Z,1012.89
2017-06-20T06:20:47.082Z,1012.89
2017-06-20T06:21:47.116Z,1012.89
2017-06-20T06:22:47.163Z,1012.89
2017-06-20T06:23:47.192Z,1012.83
2017-06-20T06:24:47.243Z,1012.84
2017-06-20T06:25:47.293Z,1012.81
2017-06-20T06:26:47.333Z,1012.94
2017-06-20T06:27:47.358Z,1012.94
2017-06-20T06:28:47.418Z,1012.89
2017-06-20T06:29:47.459Z,1012.92
2017-06-20T06:30:47.502Z,1012.89
2017-06-20T06:31:47.548Z,1012.94
2017-06-20T06:32:47.591Z,1012.9
2017-06-20T06:33:47.634Z,1012.91
2017-06-20T06:34:47.681Z,1012.91
2017-06-20T06:35:47.724Z,1012.94
2017-06-20T06:36:47.770Z,1012.94
2017-06-20T06:37:47.808Z,1012.94
2017-06-20T06:38:47.855Z,1012.88
2017-06-20T06:39:47.905Z,1012.92
2017-06-20T06:40:47.944Z,1012.97
2017-06-20T06:41:47.996Z,1012.95
2017-06-20T06:42:48.036Z,1012.98
2017-06-20T06:43:48.095Z,1013.02
2017-06-20T06:44:48.129Z,1012.97
2017-06-20T06:45:48.173Z,1012.98
2017-06-20T06:46:48.202Z,1012.97
2017-06-20T06:47:48.267Z,1012.85
2017-06-20T06:48:48.311Z,1012.85
2017-06-20T06:49:48.339Z,1012.86
2017-06-20T06:50:48.407Z,1012.93
2017-06-20T06:51:48.447Z,1012.86
2017-06-20T06:52:48.499Z,1012.91
2017-06-20T06:53:48.542Z,1012.9
2017-06-20T06:54:48.590Z,1012.81
2017-06-20T06:55:48.635Z,1012.88
2017-06-20T06:56:48.678Z,1012.91
2017-06-20T06:57:48.727Z,1012.91
2017-06-20T06:58:48.775Z,1012.86
2017-06-20T06:59:48.801Z,1012.88
2017-06-20T07:00:48.870Z,1012.91
2017-06-20T07:01:48.910Z,1012.94
2017-06-20T07:02:48.961Z,1012.99
2017-06-20T07:03:49.022Z,1012.94
2017-06-20T07:04:49.051Z,1012.95
2017-06-20T07:05:49.106Z,1012.95
2017-06-20T07:06:49.149Z,1013.07
2017-06-20T07:07:49.194Z,1013.03
2017-06-20T07:08:49.245Z,1012.98
2017-06-20T07:09:49.284Z,1012.97
2017-06-20T07:10:49.336Z,1013.03
2017-06-20T07:11:49.385Z,1013.04
2017-06-20T07:12:49.409Z,1013.05
2017-06-20T07:13:49.479Z,1013.03
2017-06-20T07:14:49.522Z,1013.03
2017-06-20T07:15:49.572Z,1013.04
2017-06-20T07:16:49.619Z,1012.97
2017-06-20T07:17:49.662Z,1013.01
2017-06-20T07:18:49.710Z,1013.01
2017-06-20T07:19:49.742Z,1013.02
2017-06-20T07:20:49.808Z,1013.04
2017-06-20T07:21:49.856Z,1013.1
2017-06-20T07:22:49.908Z,1013.08
2017-06-20T07:23:49.952Z,1013.09
2017-06-20T07:24:49.998Z,1013.07
2017-06-20T07:25:50.048Z,1013.06
2017-06-20T07:26:50.098Z,1013.05
2017-06-20T07:27:50.140Z,1013.05
2017-06-20T07:28:50.195Z,1013.09
2017-06-20T07:29:50.237Z,1013.15
2017-06-20T07:30:50.286Z,1013.14
2017-06-20T07:31:50.334Z,1013.21
2017-06-20T07:32:50.381Z,1013.22
2017-06-20T07:33:50.431Z,1013.24
2017-06-20T07:34:50.463Z,1013.2
2017-06-20T07:35:50.525Z,1013.25
2017-06-20T07:36:50.574Z,1013.24
2017-06-20T07:37:50.623Z,1013.19
2017-06-20T07:38:50.673Z,1013.25
2017-06-20T07:39:50.703Z,1013.29
2017-06-20T07:40:50.766Z,1013.33
2017-06-20T07:41:50.811Z,1013.25
2017-06-20T07:42:50.862Z,1013.31
2017-06-20T07:43:50.910Z,1013.25
2017-06-20T07:44:50.961Z,1013.29
2017-06-20T07:45:51.008Z,1013.23
2017-06-20T07:46:51.056Z,1013.32
2017-06-20T07:47:51.105Z,1013.2
2017-06-20T07:48:51.157Z,1013.13
2017-06-20T07:49:51.205Z,1013.18
2017-06-20T07:50:51.254Z,1013.18
2017-06-20T07:51:51.299Z,1013.25
2017-06-20T07:52:51.348Z,1013.19
2017-06-20T07:53:51.402Z,1013.14
2017-06-20T07:54:51.449Z,1013.09
2017-06-20T07:55:51.498Z,1013.17
2017-06-20T07:56:51.544Z,1013.26
2017-06-20T07:57:51.592Z,1013.29
2017-06-20T07:58:51.644Z,1013.35
2017-06-20T07:59:51.693Z,1013.26
2017-06-20T08:00:51.740Z,1013.38
2017-06-20T08:01:51.792Z,1013.28
2017-06-20T08:02:51.840Z,1013.4
2017-06-20T08:03:51.886Z,1013.38
2017-06-20T08:04:51.935Z,1013.35
2017-06-20T08:05:51.990Z,1013.34
2017-06-20T08:06:52.039Z,1013.37
2017-06-20T08:07:52.087Z,1013.36
2017-06-20T08:08:52.141Z,1013.41
2017-06-20T08:09:52.186Z,1013.43
2017-06-20T08:10:52.239Z,1013.45
2017-06-20T08:11:52.284Z,1013.4
2017-06-20T08:12:52.347Z,1013.38
2017-06-20T08:13:52.386Z,1013.37
2017-06-20T08:14:52.437Z,1013.41
2017-06-20T08:15:52.485Z,1013.38
2017-06-20T08:16:52.538Z,1013.43
2017-06-20T08:17:52.589Z,1013.48
2017-06-20T08:18:52.637Z,1013.43
2017-06-20T08:19:52.690Z,1013.4
2017-06-20T08:20:52.735Z,1013.4
2017-06-20T08:21:52.789Z,1013.37
2017-06-20T08:22:52.840Z,1013.38
2017-06-20T08:23:52.893Z,1013.4
2017-06-20T08:24:52.942Z,1013.39
2017-06-20T08:25:52.996Z,1013.43
2017-06-20T08:26:53.043Z,1013.38
2017-06-20T08:27:53.096Z,1013.3
2017-06-20T08:28:53.148Z,1013.4
2017-06-20T08:29:53.197Z,1013.31
2017-06-20T08:30:53.237Z,1013.25
2017-06-20T08:31:53.304Z,1013.26
2017-06-20T08:32:53.353Z,1013.29
2017-06-20T08:33:53.404Z,1013.28
2017-06-20T08:34:53.456Z,1013.22
2017-06-20T08:35:53.509Z,1013.33
2017-06-20T08:36:53.558Z,1013.25
2017-06-20T08:37:53.609Z,1013.23
2017-06-20T08:38:53.660Z,1013.26
2017-06-20T08:39:53.710Z,1013.31
2017-06-20T08:40:53.760Z,1013.27
2017-06-20T08:41:53.816Z,1013.31
2017-06-20T08:42:53.866Z,1013.28
2017-06-20T08:43:53.917Z,1013.16
2017-06-20T08:44:53.967Z,1013.26
2017-06-20T08:45:54.017Z,1013.34
2017-06-20T08:46:54.071Z,1013.33
2017-06-20T08:47:54.119Z,1013.36
2017-06-20T08:48:54.174Z,1013.37
2017-06-20T08:49:54.228Z,1013.37
2017-06-20T08:50:54.273Z,1013.3
2017-06-20T08:51:54.328Z,1013.22
2017-06-20T08:52:54.378Z,1013.25
2017-06-20T08:53:54.429Z,1013.31
2017-06-20T08:54:54.485Z,1013.24
2017-06-20T08:55:54.526Z,1013.22
2017-06-20T08:56:54.590Z,1013.22
2017-06-20T08:57:54.625Z,1013.27
2017-06-20T08:58:54.694Z,1013.25
2017-06-20T08:59:54.737Z,1013.27
2017-06-20T09:00:54.793Z,1013.18
2017-06-20T09:01:54.848Z,1013.24
2017-06-20T09:02:54.901Z,1013.29
2017-06-20T09:03:54.935Z,1013.32
2017-06-20T09:04:55.002Z,1013.36
2017-06-20T09:05:55.054Z,1013.4
2017-06-20T09:06:55.111Z,1013.49
2017-06-20T09:07:55.156Z,1013.51
2017-06-20T09:08:55.204Z,1013.44
2017-06-20T09:09:55.260Z,1013.35
2017-06-20T09:10:55.312Z,1013.34
2017-06-20T09:11:55.364Z,1013.42
2017-06-20T09:12:55.418Z,1013.43
2017-06-20T09:13:55.467Z,1013.4
2017-06-20T09:14:55.521Z,1013.41
2017-06-20T09:15:55.571Z,1013.42
2017-06-20T09:16:55.621Z,1013.4
2017-06-20T09:17:55.673Z,1013.4
2017-06-20T09:18:55.725Z,1013.5
2017-06-20T09:19:55.776Z,1013.42
2017-06-20T09:20:55.833Z,1013.42
2017-06-20T09:21:55.881Z,1013.41
2017-06-20T09:22:55.933Z,1013.53
2017-06-20T09:23:55.985Z,1013.48
2017-06-20T09:24:56.037Z,1013.48
2017-06-20T09:25:56.088Z,1013.34
2017-06-20T09:26:56.119Z,1013.37
2017-06-20T09:27:56.194Z,1013.36
2017-06-20T09:28:56.235Z,1013.41
2017-06-20T09:29:56.301Z,1013.41
2017-06-20T09:30:56.346Z,1013.4
2017-06-20T09:31:56.402Z,1013.31
2017-06-20T09:32:56.454Z,1013.43
2017-06-20T09:33:56.503Z,1013.5
2017-06-20T09:34:56.551Z,1013.49
2017-06-20T09:35:56.612Z,1013.52
2017-06-20T09:36:56.665Z,1013.47
2017-06-20T09:37:56.695Z,1013.47
2017-06-20T09:38:56.764Z,1013.51
2017-06-20T09:39:56.817Z,1013.41
2017-06-20T09:40:56.866Z,1013.49
2017-06-20T09:41:56.920Z,1013.53
2017-06-20T09:42:56.976Z,1013.41
2017-06-20T09:43:57.029Z,1013.43
2017-06-20T09:44:57.082Z,1013.44
2017-06-20T09:45:57.134Z,1013.5
2017-06-20T09:46:57.183Z,1013.4
2017-06-20T09:47:57.232Z,1013.4
2017-06-20T09:48:57.287Z,1013.42
2017-06-20T09:49:57.343Z,1013.41
2017-06-20T09:50:57.395Z,1012.81
2017-06-20T09:51:57.445Z,1012.81
2017-06-20T09:52:57.500Z,1013.34
2017-06-20T09:53:57.547Z,1013.41
2017-06-20T09:54:57.603Z,1013.43
2017-06-20T09:55:57.651Z,1013.49
2017-06-20T09:56:57.703Z,1013.43
2017-06-20T09:57:57.751Z,1013.46
2017-06-20T09:58:57.804Z,1013.49
2017-06-20T09:59:57.855Z,1013.53
2017-06-20T10:00:57.904Z,1012.91
2017-06-20T10:01:57.952Z,1012.82
2017-06-20T10:02:58.006Z,1012.98
2017-06-20T10:03:58.039Z,1013.12
2017-06-20T10:04:58.106Z,1013.33
2017-06-20T10:05:58.155Z,1013.11
2017-06-20T10:06:58.207Z,1013.57
2017-06-20T10:07:58.255Z,1013.52
2017-06-20T10:08:58.303Z,1012.86
2017-06-20T10:09:58.352Z,1012.92
2017-06-20T10:10:58.401Z,1013
2017-06-20T10:11:58.451Z,1013.66
2017-06-20T10:12:58.503Z,1013.74
2017-06-20T10:13:58.554Z,1012.89
2017-06-20T10:14:58.594Z,1012.9
2017-06-20T10:15:58.652Z,1013.04
2017-06-20T10:16:58.697Z,1013.69
2017-06-20T10:17:58.748Z,1013.18
2017-06-20T10:18:58.787Z,1013.74
2017-06-20T10:19:58.838Z,1013.93
2017-06-20T10:20:58.889Z,1012.98
2017-06-20T10:21:58.935Z,1012.96
2017-06-20T10:22:58.987Z,1012.97
2017-06-20T10:23:59.030Z,1014.09
2017-06-20T10:24:59.066Z,1013.02
2017-06-20T10:25:59.122Z,1014.03
2017-06-20T10:26:59.151Z,1013.01
2017-06-20T10:27:59.219Z,1012.96
2017-06-20T10:28:59.262Z,1012.91
2017-06-20T10:29:59.309Z,1012.98
2017-06-20T10:30:59.360Z,1013.05
2017-06-20T10:31:59.406Z,1012.99
2017-06-20T10:32:59.452Z,1012.97
2017-06-20T10:33:59.496Z,1012.96
2017-06-20T10:34:59.542Z,1013.98
2017-06-20T10:35:59.590Z,1014.18
2017-06-20T10:36:59.638Z,1014.21
2017-06-20T10:37:59.669Z,1014.35
2017-06-20T10:38:59.730Z,1012.98
2017-06-20T10:39:59.771Z,1014.14
2017-06-20T10:40:59.817Z,1014.68
2017-06-20T10:41:59.868Z,1014.8
2017-06-20T10:42:59.890Z,1013.67
2017-06-20T10:43:59.958Z,1012.93
2017-06-20T10:45:00.000Z,1012.94
2017-06-20T10:46:00.049Z,1013.03
2017-06-20T10:47:00.093Z,1012.97
2017-06-20T10:48:00.137Z,1012.96
2017-06-20T10:49:00.168Z,1014.73
2017-06-20T10:50:00.227Z,1014.73
2017-06-20T10:51:00.271Z,1014.59
2017-06-20T10:52:00.318Z,1014.51
2017-06-20T10:53:00.364Z,1014.6
2017-06-20T10:54:00.404Z,1014.67
2017-06-20T10:55:00.450Z,1014.65
2017-06-20T10:56:00.495Z,1014.61
2017-06-20T10:57:00.542Z,1014.52
2017-06-20T10:58:00.586Z,1014.28
2017-06-20T10:59:00.629Z,1014.06
2017-06-20T11:00:00.674Z,1013.48
2017-06-20T11:01:00.725Z,1013.13
2017-06-20T11:02:00.746Z,1012.91
2017-06-20T11:03:00.805Z,1013.11
2017-06-20T11:04:00.854Z,1013.06
2017-06-20T11:05:00.899Z,1013.1
2017-06-20T11:06:00.947Z,1013.11
2017-06-20T11:07:00.987Z,1013.16
2017-06-20T11:08:01.036Z,1012.94
2017-06-20T11:09:01.056Z,1013.01
2017-06-20T11:10:01.122Z,1012.94
2017-06-20T11:11:01.165Z,1012.97
2017-06-20T11:12:01.208Z,1013.01
2017-06-20T11:13:01.256Z,1012.93
2017-06-20T11:14:01.300Z,1012.98
2017-06-20T11:15:01.340Z,1012.95
2017-06-20T11:16:01.390Z,1012.96
2017-06-20T11:17:01.429Z,1013.01
2017-06-20T11:18:01.471Z,1013.03
2017-06-20T11:19:01.516Z,1013
2017-06-20T11:20:01.564Z,1013.01
2017-06-20T11:21:01.599Z,1012.96
2017-06-20T11:22:01.652Z,1012.92
2017-06-20T11:23:01.676Z,1012.96
2017-06-20T11:24:01.738Z,1012.91
2017-06-20T11:25:01.780Z,1012.94
2017-06-20T11:26:01.827Z,1012.91
2017-06-20T11:27:01.871Z,1012.91
2017-06-20T11:28:01.913Z,1012.97
2017-06-20T11:29:01.958Z,1012.83
2017-06-20T11:30:02.000Z,1012.8
2017-06-20T11:31:02.045Z,1012.82
2017-06-20T11:32:02.086Z,1012.86
2017-06-20T11:33:02.129Z,1012.83
2017-06-20T11:34:02.167Z,1012.88
2017-06-20T11:35:02.219Z,1012.87
2017-06-20T11:36:02.262Z,1012.87
2017-06-20T11:37:02.306Z,1012.89
2017-06-20T11:38:02.353Z,1012.89
2017-06-20T11:39:02.391Z,1012.93
2017-06-20T11:40:02.447Z,1012.94
2017-06-20T11:41:02.467Z,1012.85
2017-06-20T11:42:02.523Z,1012.82
2017-06-20T11:43:02.564Z,1012.86
2017-06-20T11:44:02.607Z,1012.76
2017-06-20T11:45:02.661Z,1012.76
2017-06-20T11:46:02.691Z,1012.74
2017-06-20T11:47:02.737Z,1012.86
2017-06-20T11:48:02.770Z,1012.86
2017-06-20T11:49:02.826Z,1012.84
2017-06-20T11:50:02.870Z,1012.84
2017-06-20T11:51:02.911Z,1012.85
2017-06-20T11:52:02.954Z,1012.81
2017-06-20T11:53:02.999Z,1012.8
2017-06-20T11:54:03.038Z,1012.86
2017-06-20T11:55:03.066Z,1012.8
2017-06-20T11:56:03.129Z,1012.8
2017-06-20T11:57:03.167Z,1012.82
2017-06-20T11:58:03.214Z,1012.77
2017-06-20T11:59:03.256Z,1012.73
2017-06-20T12:00:03.295Z,1012.7
2017-06-20T12:01:03.336Z,1012.75
2017-06-20T12:02:03.383Z,1012.75
2017-06-20T12:03:03.435Z,1012.75
2017-06-20T12:04:03.466Z,1012.67
2017-06-20T12:05:03.505Z,1012.72
2017-06-20T12:06:03.565Z,1012.75
2017-06-20T12:07:03.584Z,1012.68
2017-06-20T12:08:03.660Z,1012.73
2017-06-20T12:09:03.691Z,1012.79